createdAt,value
2022-10-12T00:01:10.113Z,8.50
2022-10-12T00:03:40.178Z,8.03
2022-10-12T00:06:12.726Z,7.97
2022-10-12T00:08:43.712Z,8.63
2022-10-12T00:15:39.600Z,7.97
2022-10-12T00:18:09.057Z,8.57
2022-10-12T00:20:38.694Z,8.13
2022-10-12T00:23:07.814Z,8.53
2022-10-12T00:25:38.583Z,9.50
2022-10-12T00:28:07.597Z,9.93
2022-10-12T00:30:40.750Z,9.27
2022-10-12T00:33:08.869Z,7.77
2022-10-12T00:35:38.760Z,7.63
2022-10-12T00:38:07.099Z,7.57
2022-10-12T00:40:35.631Z,8.20
2022-10-12T00:43:04.102Z,7.67
2022-10-12T00:45:33.539Z,7.40
2022-10-12T00:48:02.246Z,6.90
2022-10-12T00:50:35.061Z,8.43
2022-10-12T00:53:11.224Z,7.20
2022-10-12T00:55:45.891Z,8.50
2022-10-12T00:58:15.216Z,8.37
2022-10-12T01:00:44.623Z,11.67
2022-10-12T01:03:20.951Z,10.77
2022-10-12T01:05:49.875Z,10.07
2022-10-12T01:08:19.839Z,9.53
2022-10-12T01:10:47.950Z,12.03
2022-10-12T01:13:17.094Z,8.53
2022-10-12T01:15:55.248Z,9.77
2022-10-12T01:18:31.265Z,9.43
2022-10-12T01:21:19.778Z,9.57
2022-10-12T01:24:35.851Z,9.60
2022-10-12T01:27:30.672Z,9.00
2022-10-12T01:30:17.694Z,10.17
2022-10-12T01:33:10.608Z,10.33
2022-10-12T01:35:52.181Z,10.33
2022-10-12T01:38:35.620Z,9.87
2022-10-12T01:41:12.688Z,9.60
2022-10-12T01:43:43.696Z,8.57
2022-10-12T01:46:42.078Z,9.10
2022-10-12T01:49:11.699Z,10.97
2022-10-12T01:52:08.716Z,9.67
2022-10-12T01:54:54.871Z,9.10
2022-10-12T01:57:34.729Z,9.10
2022-10-12T02:00:08.127Z,8.53
2022-10-12T02:02:52.987Z,8.70
2022-10-12T02:05:34.342Z,9.57
2022-10-12T02:08:13.071Z,7.83
2022-10-12T02:10:52.873Z,9.13
2022-10-12T02:13:25.292Z,10.40
2022-10-12T02:15:56.183Z,8.40
2022-10-12T02:18:26.262Z,9.30
2022-10-12T02:20:59.792Z,9.00
2022-10-12T02:23:30.371Z,8.33
2022-10-12T02:26:01.468Z,7.93
2022-10-12T02:28:35.595Z,9.37
2022-10-12T02:31:16.609Z,8.80
2022-10-12T02:33:56.199Z,8.57
2022-10-12T02:36:35.461Z,9.13
2022-10-12T02:39:13.433Z,8.67
2022-10-12T02:41:48.126Z,8.83
2022-10-12T02:44:23.024Z,9.40
2022-10-12T02:46:55.522Z,8.50
2022-10-12T02:49:29.577Z,8.80
2022-10-12T02:51:59.311Z,9.23
2022-10-12T02:54:28.488Z,8.90
2022-10-12T02:56:56.846Z,9.40
2022-10-12T02:59:25.802Z,9.10
2022-10-12T03:01:54.417Z,9.10
2022-10-12T03:04:22.790Z,8.93
2022-10-12T03:06:52.905Z,9.77
2022-10-12T03:09:21.277Z,8.87
2022-10-12T03:11:49.587Z,8.53
2022-10-12T03:14:18.459Z,9.00
2022-10-12T03:16:48.230Z,8.17
2022-10-12T03:19:17.029Z,9.23
2022-10-12T03:21:45.365Z,8.73
2022-10-12T03:24:15.684Z,7.70
2022-10-12T03:26:44.547Z,7.53
2022-10-12T03:29:12.657Z,8.07
2022-10-12T03:31:41.111Z,7.67
2022-10-12T03:34:09.883Z,8.20
2022-10-12T03:36:38.153Z,7.83
2022-10-12T03:39:06.438Z,7.90
2022-10-12T03:41:35.990Z,8.57
2022-10-12T03:44:04.500Z,8.13
2022-10-12T03:46:32.600Z,8.30
2022-10-12T03:49:01.141Z,8.77
2022-10-12T03:51:29.220Z,8.07
2022-10-12T03:53:57.500Z,7.60
2022-10-12T03:56:25.724Z,8.03
2022-10-12T03:58:55.644Z,7.30
2022-10-12T04:01:23.847Z,7.50
2022-10-12T04:03:52.240Z,7.53
2022-10-12T04:06:20.908Z,7.30
2022-10-12T04:08:50.959Z,8.53
2022-10-12T04:11:20.324Z,9.03
2022-10-12T04:13:48.608Z,7.83
2022-10-12T04:16:19.099Z,8.17
2022-10-12T04:18:47.292Z,7.70
2022-10-12T04:21:17.678Z,8.80
2022-10-12T04:23:45.828Z,7.50
2022-10-12T04:26:14.610Z,8.63
2022-10-12T04:28:42.796Z,7.30
2022-10-12T04:31:11.281Z,8.53
2022-10-12T04:33:41.546Z,8.17
2022-10-12T04:36:10.910Z,7.70
2022-10-12T04:38:39.702Z,8.37
2022-10-12T04:41:07.806Z,8.43
2022-10-12T04:43:36.287Z,8.63
2022-10-12T04:46:04.981Z,7.97
2022-10-12T04:48:33.219Z,7.40
2022-10-12T04:51:03.223Z,8.60
2022-10-12T04:53:31.542Z,8.17
2022-10-12T04:56:04.431Z,8.87
2022-10-12T04:58:33.413Z,9.40
2022-10-12T05:01:02.554Z,9.17
2022-10-12T05:03:30.821Z,9.73
2022-10-12T05:05:59.108Z,10.10
2022-10-12T05:08:28.724Z,9.57
2022-10-12T05:10:59.478Z,9.90
2022-10-12T05:13:28.860Z,10.33
2022-10-12T05:15:57.387Z,10.73
2022-10-12T05:18:26.316Z,9.77
2022-10-12T05:20:57.238Z,9.73
2022-10-12T05:23:25.620Z,9.93
2022-10-12T05:25:57.563Z,9.47
2022-10-12T05:28:25.970Z,8.30
2022-10-12T05:30:54.480Z,8.50
2022-10-12T05:33:23.354Z,7.37
2022-10-12T05:35:56.244Z,8.20
2022-10-12T05:38:25.195Z,8.10
2022-10-12T05:40:59.197Z,8.83
2022-10-12T05:43:30.239Z,8.67
2022-10-12T05:45:58.705Z,10.90
2022-10-12T05:48:27.012Z,12.43
2022-10-12T05:50:56.171Z,10.43
2022-10-12T05:53:24.913Z,10.00
2022-10-12T05:55:55.593Z,10.83
2022-10-12T05:58:24.640Z,10.67
2022-10-12T06:00:54.892Z,10.00
2022-10-12T06:03:26.169Z,10.10
2022-10-12T06:05:54.841Z,12.90
2022-10-12T06:08:23.483Z,13.23
2022-10-12T06:10:53.732Z,15.80
2022-10-12T06:13:21.883Z,13.43
2022-10-12T06:15:50.965Z,11.97
2022-10-12T06:18:21.208Z,14.23
2022-10-12T06:20:56.475Z,10.40
2022-10-12T06:23:37.733Z,13.63
2022-10-12T06:26:06.495Z,11.50
2022-10-12T06:28:34.781Z,13.10
2022-10-12T06:31:03.748Z,11.97
2022-10-12T06:33:33.494Z,13.80
2022-10-12T06:36:01.708Z,12.97
2022-10-12T06:38:30.421Z,11.47
2022-10-12T06:40:58.775Z,11.07
2022-10-12T06:43:27.170Z,10.90
2022-10-12T06:45:59.923Z,10.37
2022-10-12T06:48:28.332Z,10.83
2022-10-12T06:50:58.183Z,9.20
2022-10-12T06:53:29.052Z,9.60
2022-10-12T06:55:57.168Z,8.60
2022-10-12T06:58:25.512Z,8.60
2022-10-12T07:00:53.708Z,8.13
2022-10-12T07:03:21.839Z,8.20
2022-10-12T07:05:50.090Z,7.80
2022-10-12T07:08:19.988Z,9.80
2022-10-12T07:10:48.244Z,9.00
2022-10-12T07:13:16.387Z,9.13
2022-10-12T07:15:50.608Z,7.90
2022-10-12T07:18:18.893Z,8.43
2022-10-12T07:20:47.250Z,7.30
2022-10-12T07:23:15.780Z,6.90
2022-10-12T07:25:51.159Z,7.93
2022-10-12T07:28:20.544Z,8.20
2022-10-12T07:30:49.184Z,8.67
2022-10-12T07:33:18.488Z,8.73
2022-10-12T07:36:12.705Z,9.60
2022-10-12T07:38:45.548Z,9.43
2022-10-12T07:41:16.142Z,11.40
2022-10-12T07:43:44.790Z,8.07
2022-10-12T07:46:13.616Z,9.17
2022-10-12T07:48:47.304Z,8.67
2022-10-12T07:51:18.258Z,6.63
2022-10-12T07:53:46.466Z,6.60
2022-10-12T07:56:16.888Z,7.27
2022-10-12T07:58:50.452Z,7.03
2022-10-12T08:01:21.795Z,6.50
2022-10-12T08:03:51.303Z,7.33
2022-10-12T08:06:23.915Z,7.90
2022-10-12T08:08:52.317Z,7.13
2022-10-12T08:11:23.112Z,7.53
2022-10-12T08:13:51.381Z,6.57
2022-10-12T08:16:24.872Z,7.60
2022-10-12T08:18:53.466Z,6.90
2022-10-12T08:21:21.750Z,8.53
2022-10-12T08:23:50.600Z,6.70
2022-10-12T08:26:18.729Z,7.50
2022-10-12T08:28:49.046Z,7.87
2022-10-12T08:31:19.709Z,7.77
2022-10-12T08:33:47.902Z,8.63
2022-10-12T08:36:16.708Z,8.43
2022-10-12T08:38:45.981Z,7.63
2022-10-12T08:41:40.243Z,7.67
2022-10-12T08:44:37.472Z,7.90
2022-10-12T08:47:15.472Z,7.93
2022-10-12T08:49:49.858Z,7.37
2022-10-12T08:52:30.032Z,8.40
2022-10-12T08:55:06.914Z,7.53
2022-10-12T08:57:35.813Z,7.07
2022-10-12T09:00:14.273Z,8.70
2022-10-12T09:03:00.459Z,6.93
2022-10-12T09:05:38.507Z,7.73
2022-10-12T09:08:15.953Z,7.73
2022-10-12T09:10:51.308Z,6.87
2022-10-12T09:13:40.317Z,7.20
2022-10-12T09:16:22.027Z,8.63
2022-10-12T09:18:57.759Z,8.23
2022-10-12T09:21:29.828Z,8.00
2022-10-12T09:24:00.546Z,6.73
2022-10-12T09:26:36.396Z,8.73
2022-10-12T09:29:24.831Z,7.47
2022-10-12T09:32:28.572Z,8.00
2022-10-12T09:34:57.482Z,7.77
2022-10-12T09:37:30.199Z,8.17
2022-10-12T09:39:59.754Z,8.73
2022-10-12T09:42:28.341Z,9.27
2022-10-12T09:45:02.483Z,8.40
2022-10-12T09:47:33.781Z,9.70
2022-10-12T09:50:04.729Z,9.47
2022-10-12T09:52:45.965Z,8.80
2022-10-12T09:58:02.628Z,7.87
2022-10-12T10:00:34.849Z,10.17
2022-10-12T10:03:04.916Z,10.17
2022-10-12T10:05:36.549Z,10.67
2022-10-12T10:08:21.784Z,11.10
2022-10-12T10:10:53.059Z,13.27
2022-10-12T10:13:22.578Z,10.87
2022-10-12T10:16:02.605Z,10.30
2022-10-12T10:18:38.250Z,10.40
2022-10-12T10:21:11.757Z,10.60
2022-10-12T10:23:44.755Z,10.87
2022-10-12T10:28:49.563Z,12.10
2022-10-12T10:31:23.909Z,8.97
2022-10-12T10:34:20.088Z,11.20
2022-10-12T10:36:52.802Z,11.33
2022-10-12T10:39:27.062Z,10.77
2022-10-12T10:41:56.758Z,10.30
2022-10-12T10:44:30.016Z,11.43
2022-10-12T10:47:03.343Z,9.87
2022-10-12T10:49:44.357Z,10.43
2022-10-12T10:52:25.842Z,9.65
2022-10-12T10:55:20.338Z,11.37
2022-10-12T10:58:02.480Z,11.45
2022-10-12T11:00:40.795Z,10.93
2022-10-12T11:03:17.528Z,10.88
2022-10-12T11:05:55.092Z,10.75
2022-10-12T11:08:28.053Z,9.10
2022-10-12T11:11:03.076Z,11.35
2022-10-12T11:13:37.449Z,9.18
2022-10-12T11:16:20.392Z,11.68
2022-10-12T11:18:56.686Z,10.40
2022-10-12T11:21:36.693Z,10.43
2022-10-12T11:24:17.198Z,10.02
2022-10-12T11:26:53.312Z,10.90
2022-10-12T11:29:21.672Z,9.45
2022-10-12T11:32:00.131Z,8.57
2022-10-12T11:34:36.745Z,10.63
2022-10-12T11:37:20.080Z,12.00
2022-10-12T11:39:53.875Z,8.68
2022-10-12T11:42:33.971Z,11.80
2022-10-12T11:45:07.919Z,9.55
2022-10-12T11:47:44.023Z,9.77
2022-10-12T11:50:30.168Z,8.13
2022-10-12T11:53:05.195Z,9.32
2022-10-12T11:55:52.766Z,9.65
2022-10-12T11:58:42.197Z,8.10
2022-10-12T12:01:35.776Z,15.27
2022-10-12T12:04:42.593Z,8.57
2022-10-12T12:07:49.845Z,8.27
2022-10-12T12:11:07.860Z,8.68
2022-10-12T12:13:36.013Z,11.30
2022-10-12T12:16:33.427Z,10.65
2022-10-12T12:19:35.783Z,9.15
2022-10-12T12:22:26.488Z,10.05
2022-10-12T12:25:04.429Z,10.93
2022-10-12T12:27:39.437Z,8.70
2022-10-12T12:30:34.509Z,9.77
2022-10-12T12:33:07.812Z,9.68
2022-10-12T12:35:40.976Z,9.85
2022-10-12T12:38:28.807Z,9.50
2022-10-12T12:41:08.064Z,9.43
2022-10-12T12:43:56.806Z,9.35
2022-10-12T12:46:48.390Z,8.85
2022-10-12T12:49:39.592Z,7.68
2022-10-12T12:52:17.936Z,8.13
2022-10-12T12:55:35.925Z,7.38
2022-10-12T12:58:40.061Z,8.32
2022-10-12T13:01:34.600Z,8.80
2022-10-12T13:04:27.782Z,8.13
2022-10-12T13:07:47.471Z,9.10
2022-10-12T13:10:30.897Z,8.55
2022-10-12T13:13:38.081Z,8.23
2022-10-12T13:17:23.300Z,9.80
2022-10-12T13:19:22.204Z,8.35
2022-10-12T13:21:55.421Z,8.65
2022-10-12T13:24:31.090Z,9.38
2022-10-12T13:27:13.953Z,8.82
2022-10-12T13:29:53.048Z,9.57
2022-10-12T13:32:43.414Z,9.07
2022-10-12T13:35:21.650Z,9.25
2022-10-12T13:38:03.301Z,7.90
2022-10-12T13:40:39.070Z,13.55
2022-10-12T13:43:28.524Z,9.20
2022-10-12T13:45:56.787Z,8.87
2022-10-12T13:48:53.784Z,8.23
2022-10-12T13:51:25.501Z,8.82
2022-10-12T13:53:53.988Z,8.48
2022-10-12T13:56:27.955Z,7.53
2022-10-12T13:59:04.144Z,7.70
2022-10-12T14:01:35.514Z,6.70
2022-10-12T14:04:05.552Z,7.13
2022-10-12T14:06:37.919Z,6.82
2022-10-12T14:09:13.761Z,6.65
2022-10-12T14:11:45.470Z,7.00
2022-10-12T14:14:21.950Z,7.40
2022-10-12T14:16:53.007Z,7.38
2022-10-12T14:19:33.161Z,6.78
2022-10-12T14:22:03.337Z,6.65
2022-10-12T14:24:32.702Z,7.93
2022-10-12T14:27:05.622Z,6.18
2022-10-12T14:29:41.851Z,6.95
2022-10-12T14:32:42.128Z,7.18
2022-10-12T14:35:23.309Z,5.82
2022-10-12T14:37:54.874Z,6.00
2022-10-12T14:40:32.463Z,6.72
2022-10-12T14:43:08.254Z,6.70
2022-10-12T14:45:37.133Z,5.95
2022-10-12T14:48:11.425Z,5.88
2022-10-12T14:50:39.626Z,7.03
2022-10-12T14:53:13.903Z,7.18
2022-10-12T14:55:43.207Z,6.63
2022-10-12T14:58:17.921Z,7.22
2022-10-12T15:00:46.608Z,6.50
2022-10-12T15:03:15.312Z,6.50
2022-10-12T15:05:43.408Z,5.00
2022-10-12T15:08:11.365Z,6.55
2022-10-12T15:10:39.495Z,6.95
2022-10-12T15:13:07.578Z,5.90
2022-10-12T15:15:43.256Z,5.32
2022-10-12T15:18:12.341Z,6.50
2022-10-12T15:20:45.367Z,6.35
2022-10-12T15:23:16.888Z,6.72
2022-10-12T15:25:51.593Z,7.82
2022-10-12T15:28:20.374Z,6.60
2022-10-12T15:33:39.596Z,5.75
2022-10-12T15:36:09.444Z,6.97
2022-10-12T15:38:38.062Z,6.82
2022-10-12T15:41:07.158Z,5.78
2022-10-12T15:43:38.130Z,6.45
2022-10-12T15:46:12.634Z,5.68
2022-10-12T15:48:41.282Z,6.68
2022-10-12T15:51:19.027Z,8.50
2022-10-12T15:53:48.118Z,6.88
2022-10-12T15:56:17.804Z,17.27
2022-10-12T15:58:47.238Z,7.72
2022-10-12T16:01:19.348Z,6.47
2022-10-12T16:03:49.818Z,6.13
2022-10-12T16:06:18.633Z,6.35
2022-10-12T16:08:47.200Z,5.43
2022-10-12T16:11:18.976Z,5.43
2022-10-12T16:13:53.894Z,6.05
2022-10-12T16:16:26.010Z,5.90
2022-10-12T16:18:54.897Z,6.43
2022-10-12T16:21:23.064Z,9.27
2022-10-12T16:23:51.751Z,43.30
2022-10-12T16:26:20.633Z,42.42
2022-10-12T16:28:48.938Z,47.15
2022-10-12T16:31:19.058Z,89.10
2022-10-12T16:33:48.594Z,73.25
2022-10-12T16:36:18.754Z,27.70
2022-10-12T16:38:47.461Z,43.30
2022-10-12T16:41:18.952Z,35.08
2022-10-12T16:43:47.402Z,57.15
2022-10-12T16:46:15.559Z,52.80
2022-10-12T16:48:44.444Z,46.67
2022-10-12T16:51:15.324Z,61.30
2022-10-12T16:53:43.896Z,18.63
2022-10-12T16:56:12.459Z,9.07
2022-10-12T16:58:40.584Z,7.67
2022-10-12T17:01:11.480Z,12.80
2022-10-12T17:03:40.184Z,20.77
2022-10-12T17:06:09.951Z,25.77
2022-10-12T17:08:39.999Z,18.33
2022-10-12T17:11:10.852Z,22.67
2022-10-12T17:13:43.122Z,35.20
2022-10-12T17:16:28.984Z,45.47
2022-10-12T17:18:59.721Z,24.20
2022-10-12T17:21:29.565Z,35.93
2022-10-12T17:24:01.493Z,16.03
2022-10-12T17:26:30.574Z,12.20
2022-10-12T17:28:58.751Z,10.00
2022-10-12T17:31:27.012Z,16.33
2022-10-12T17:33:55.259Z,22.30
2022-10-12T17:36:28.073Z,24.13
2022-10-12T17:39:00.541Z,18.20
2022-10-12T17:41:30.042Z,11.97
2022-10-12T17:43:58.809Z,10.90
2022-10-12T17:46:28.008Z,10.33
2022-10-12T17:48:59.228Z,10.07
2022-10-12T17:51:28.450Z,10.23
2022-10-12T17:53:56.634Z,9.23
2022-10-12T17:56:26.942Z,8.70
2022-10-12T17:58:57.441Z,7.53
2022-10-12T18:01:26.443Z,8.17
2022-10-12T18:03:55.407Z,7.07
2022-10-12T18:06:25.051Z,7.67
2022-10-12T18:08:53.759Z,8.07
2022-10-12T18:11:22.328Z,9.27
2022-10-12T18:13:54.529Z,8.67
2022-10-12T18:16:26.890Z,8.13
2022-10-12T18:18:56.073Z,8.67
2022-10-12T18:21:27.238Z,7.67
2022-10-12T18:23:55.691Z,8.20
2022-10-12T18:26:24.953Z,7.67
2022-10-12T18:28:56.563Z,7.37
2022-10-12T18:31:27.982Z,6.70
2022-10-12T18:33:58.795Z,7.57
2022-10-12T18:36:27.916Z,7.93
2022-10-12T18:38:57.196Z,7.33
2022-10-12T18:41:27.039Z,7.90
2022-10-12T18:44:02.431Z,8.40
2022-10-12T18:46:33.853Z,9.47
2022-10-12T18:49:05.259Z,7.53
2022-10-12T18:51:36.216Z,8.10
2022-10-12T18:54:06.116Z,8.77
2022-10-12T18:56:37.771Z,10.37
2022-10-12T18:59:08.895Z,15.40
2022-10-12T19:01:37.343Z,14.33
2022-10-12T19:04:06.814Z,12.07
2022-10-12T19:06:39.558Z,10.57
2022-10-12T19:09:07.947Z,8.03
2022-10-12T19:11:37.272Z,7.60
2022-10-12T19:14:13.584Z,7.27
2022-10-12T19:16:42.986Z,7.37
2022-10-12T19:19:20.557Z,7.03
2022-10-12T19:21:50.158Z,7.50
2022-10-12T19:24:19.888Z,6.30
2022-10-12T19:26:49.056Z,7.20
2022-10-12T19:29:19.603Z,7.60
2022-10-12T19:31:50.403Z,8.00
2022-10-12T19:34:21.415Z,8.27
2022-10-12T19:36:50.029Z,13.10
2022-10-12T19:39:21.962Z,11.10
2022-10-12T19:41:52.176Z,8.73
2022-10-12T19:44:22.896Z,8.67
2022-10-12T19:46:53.466Z,7.50
2022-10-12T19:49:21.939Z,8.00
2022-10-12T19:51:50.109Z,7.73
2022-10-12T19:54:19.615Z,7.90
2022-10-12T19:56:47.806Z,7.47
2022-10-12T19:59:16.619Z,7.33
2022-10-12T20:01:48.323Z,7.90
2022-10-12T20:04:16.645Z,8.23
2022-10-12T20:06:44.821Z,9.27
2022-10-12T20:09:13.041Z,7.83
2022-10-12T20:11:41.708Z,8.00
2022-10-12T20:14:11.544Z,7.30
2022-10-12T20:16:39.769Z,8.13
2022-10-12T20:19:09.756Z,9.10
2022-10-12T20:21:38.671Z,8.23
2022-10-12T20:24:10.276Z,7.93
2022-10-12T20:26:39.343Z,7.23
2022-10-12T20:29:07.727Z,8.03
2022-10-12T20:31:36.293Z,6.50
2022-10-12T20:34:04.889Z,7.43
2022-10-12T20:36:34.844Z,7.57
2022-10-12T20:39:03.087Z,7.27
2022-10-12T20:41:31.309Z,7.33
2022-10-12T20:44:01.713Z,7.50
2022-10-12T20:46:31.006Z,7.30
2022-10-12T20:49:02.281Z,7.47
2022-10-12T20:51:36.218Z,7.50
2022-10-12T20:54:08.736Z,6.70
2022-10-12T20:56:42.358Z,7.57
2022-10-12T20:59:11.410Z,7.93
2022-10-12T21:01:40.326Z,7.33
2022-10-12T21:04:10.426Z,8.80
2022-10-12T21:06:41.560Z,8.20
2022-10-12T21:09:14.850Z,15.03
2022-10-12T21:11:43.690Z,15.60
2022-10-12T21:14:13.793Z,9.30
2022-10-12T21:16:42.568Z,16.50
2022-10-12T21:19:16.249Z,8.90
2022-10-12T21:21:47.581Z,20.57
2022-10-12T21:24:16.659Z,15.67
2022-10-12T21:26:45.309Z,11.33
2022-10-12T21:29:14.841Z,10.40
2022-10-12T21:31:43.173Z,9.33
2022-10-12T21:34:12.687Z,7.23
2022-10-12T21:36:41.171Z,7.63
2022-10-12T21:39:14.585Z,8.53
2022-10-12T21:41:43.439Z,8.07
2022-10-12T21:44:12.731Z,8.83
2022-10-12T21:46:41.554Z,7.33
2022-10-12T21:49:14.273Z,6.53
2022-10-12T21:51:42.824Z,6.23
2022-10-12T21:54:12.478Z,10.17
2022-10-12T21:56:40.661Z,19.20
2022-10-12T21:59:08.970Z,14.47
2022-10-12T22:01:41.621Z,8.50
2022-10-12T22:04:15.668Z,7.13
2022-10-12T22:06:44.674Z,7.57
2022-10-12T22:09:19.112Z,14.60
2022-10-12T22:11:47.828Z,13.47
2022-10-12T22:14:19.446Z,9.83
2022-10-12T22:16:47.809Z,10.23
2022-10-12T22:19:19.757Z,10.30
2022-10-12T22:21:51.287Z,9.87
2022-10-12T22:24:22.400Z,11.83
2022-10-12T22:26:50.834Z,12.23
2022-10-12T22:29:19.091Z,11.13
2022-10-12T22:31:47.398Z,9.93
2022-10-12T22:34:16.825Z,8.17
2022-10-12T22:36:44.953Z,8.63
2022-10-12T22:39:14.234Z,7.50
2022-10-12T22:41:47.425Z,8.70
2022-10-12T22:44:15.593Z,8.77
2022-10-12T22:46:44.893Z,8.27
2022-10-12T22:49:13.007Z,7.80
2022-10-12T22:51:41.550Z,7.37
2022-10-12T22:54:11.022Z,7.10
2022-10-12T22:56:43.310Z,7.20
2022-10-12T22:59:16.181Z,7.27
2022-10-12T23:01:45.276Z,7.40
2022-10-12T23:04:14.021Z,6.97
2022-10-12T23:06:42.265Z,6.30
2022-10-12T23:09:10.667Z,5.93
2022-10-12T23:11:38.865Z,5.40
2022-10-12T23:14:07.548Z,5.73
2022-10-12T23:16:37.345Z,5.53
2022-10-12T23:19:06.802Z,4.97
2022-10-12T23:21:36.515Z,5.07
2022-10-12T23:24:06.274Z,4.57
2022-10-12T23:26:35.483Z,4.83
2022-10-12T23:29:04.154Z,4.90
2022-10-12T23:31:33.718Z,4.73
2022-10-12T23:34:07.215Z,4.63
2022-10-12T23:36:35.762Z,4.37
2022-10-12T23:39:06.015Z,5.43
2022-10-12T23:41:34.411Z,5.13
2022-10-12T23:44:02.554Z,4.50
2022-10-12T23:46:30.949Z,4.30
2022-10-12T23:49:00.326Z,4.57
2022-10-12T23:51:29.889Z,4.43
2022-10-12T23:53:58.141Z,4.67
2022-10-12T23:56:26.987Z,4.93
2022-10-12T23:58:55.546Z,5.23
